EGNC/CAX METAR and TAF weather

Enter ICAO airport designator
Station Type Date Time Source
EGNC METAR 2020/01/20 14:50 UTC NOAA

EGNC 201450Z 25013KT 220V280 9999 BKN025 07/05 Q1043


Station Type Date Time Source
EGNC Decoded METAR 2020/01/20 14:50 UTC NOAA

Carlisle, United Kingdom (EGNC) 54-56N 002-57W
Jan 20, 2020 - 09:50 AM EST / 2020.01.20 1450 UTC
Wind: from the WSW (250 degrees) at 15 MPH (13 KT) (direction variable):0
Visibility: greater than 7 mile(s):0
Sky conditions: mostly cloudy
Temperature: 44 F (7 C)
Dew Point: 41 F (5 C)
Relative Humidity: 87%
Pressure (altimeter): 30.80 in. Hg (1043 hPa)
ob: EGNC 201450Z 25013KT 220V280 9999 BKN025 07/05 Q1043
cycle: 15

Station Type Date Time Source
EGNC TAF UTC NOAA

Error!

Example: see airport list